sensor_id;sensor_type;location;lat;lon;timestamp;P1;durP1;ratioP1;P2;durP2;ratioP2
12848;SDS011;6493;50.928;7.172;2022-08-19T00:00:31;2.83;;;2.63;;
12848;SDS011;6493;50.928;7.172;2022-08-19T00:05:36;2.77;;;2.57;;
12848;SDS011;6493;50.928;7.172;2022-08-19T00:10:40;2.87;;;2.67;;
12848;SDS011;6493;50.928;7.172;2022-08-19T00:15:44;2.60;;;2.40;;
12848;SDS011;6493;50.928;7.172;2022-08-19T00:20:49;2.47;;;2.30;;
12848;SDS011;6493;50.928;7.172;2022-08-19T00:25:53;2.70;;;2.50;;
12848;SDS011;6493;50.928;7.172;2022-08-19T00:30:56;2.60;;;2.50;;
12848;SDS011;6493;50.928;7.172;2022-08-19T00:36:03;2.43;;;2.23;;
12848;SDS011;6493;50.928;7.172;2022-08-19T00:41:12;2.70;;;2.50;;
12848;SDS011;6493;50.928;7.172;2022-08-19T00:46:17;2.50;;;2.30;;
12848;SDS011;6493;50.928;7.172;2022-08-19T00:51:23;3.27;;;2.97;;
12848;SDS011;6493;50.928;7.172;2022-08-19T00:56:28;2.83;;;2.63;;
12848;SDS011;6493;50.928;7.172;2022-08-19T01:01:33;3.27;;;3.07;;
12848;SDS011;6493;50.928;7.172;2022-08-19T01:06:39;2.80;;;2.60;;
12848;SDS011;6493;50.928;7.172;2022-08-19T01:11:46;2.87;;;2.67;;
12848;SDS011;6493;50.928;7.172;2022-08-19T01:16:50;2.90;;;2.70;;
12848;SDS011;6493;50.928;7.172;2022-08-19T01:21:59;2.57;;;2.47;;
12848;SDS011;6493;50.928;7.172;2022-08-19T01:27:18;2.90;;;2.70;;
12848;SDS011;6493;50.928;7.172;2022-08-19T01:32:22;3.27;;;3.07;;
12848;SDS011;6493;50.928;7.172;2022-08-19T01:37:41;2.90;;;2.70;;
12848;SDS011;6493;50.928;7.172;2022-08-19T01:42:48;2.83;;;2.63;;
12848;SDS011;6493;50.928;7.172;2022-08-19T01:47:52;2.50;;;2.30;;
12848;SDS011;6493;50.928;7.172;2022-08-19T01:53:04;3.10;;;2.90;;
12848;SDS011;6493;50.928;7.172;2022-08-19T01:58:13;2.40;;;2.30;;
12848;SDS011;6493;50.928;7.172;2022-08-19T02:03:22;2.60;;;2.40;;
12848;SDS011;6493;50.928;7.172;2022-08-19T02:08:26;4.10;;;2.90;;
12848;SDS011;6493;50.928;7.172;2022-08-19T02:13:32;3.03;;;2.83;;
12848;SDS011;6493;50.928;7.172;2022-08-19T02:18:36;3.00;;;2.80;;
12848;SDS011;6493;50.928;7.172;2022-08-19T02:23:40;3.23;;;3.03;;
12848;SDS011;6493;50.928;7.172;2022-08-19T02:28:45;2.67;;;2.47;;
12848;SDS011;6493;50.928;7.172;2022-08-19T02:33:49;2.57;;;2.37;;
12848;SDS011;6493;50.928;7.172;2022-08-19T02:38:57;2.90;;;2.70;;
12848;SDS011;6493;50.928;7.172;2022-08-19T02:44:03;3.00;;;2.80;;
12848;SDS011;6493;50.928;7.172;2022-08-19T02:49:27;3.30;;;2.90;;
12848;SDS011;6493;50.928;7.172;2022-08-19T02:54:35;2.67;;;2.47;;
12848;SDS011;6493;50.928;7.172;2022-08-19T02:59:41;2.50;;;2.30;;
12848;SDS011;6493;50.928;7.172;2022-08-19T03:04:45;3.17;;;2.90;;
12848;SDS011;6493;50.928;7.172;2022-08-19T03:09:49;3.40;;;2.73;;
12848;SDS011;6493;50.928;7.172;2022-08-19T03:14:54;2.83;;;2.63;;
12848;SDS011;6493;50.928;7.172;2022-08-19T03:19:58;2.83;;;2.63;;
12848;SDS011;6493;50.928;7.172;2022-08-19T03:25:02;2.73;;;2.53;;
12848;SDS011;6493;50.928;7.172;2022-08-19T03:30:08;3.03;;;2.83;;
12848;SDS011;6493;50.928;7.172;2022-08-19T03:35:13;2.67;;;2.47;;
12848;SDS011;6493;50.928;7.172;2022-08-19T03:40:17;2.87;;;2.67;;
12848;SDS011;6493;50.928;7.172;2022-08-19T03:45:23;3.00;;;2.80;;
12848;SDS011;6493;50.928;7.172;2022-08-19T03:50:29;3.17;;;2.97;;
12848;SDS011;6493;50.928;7.172;2022-08-19T03:55:33;2.97;;;2.77;;
12848;SDS011;6493;50.928;7.172;2022-08-19T04:00:41;2.87;;;2.67;;
12848;SDS011;6493;50.928;7.172;2022-08-19T04:05:45;2.93;;;2.73;;
12848;SDS011;6493;50.928;7.172;2022-08-19T04:10:49;2.77;;;2.57;;
12848;SDS011;6493;50.928;7.172;2022-08-19T04:15:55;2.70;;;2.50;;
12848;SDS011;6493;50.928;7.172;2022-08-19T04:20:58;3.30;;;3.10;;
12848;SDS011;6493;50.928;7.172;2022-08-19T04:26:02;3.37;;;3.10;;
12848;SDS011;6493;50.928;7.172;2022-08-19T04:31:13;3.10;;;2.87;;
12848;SDS011;6493;50.928;7.172;2022-08-19T04:36:19;2.87;;;2.67;;
12848;SDS011;6493;50.928;7.172;2022-08-19T04:41:24;2.80;;;2.60;;
12848;SDS011;6493;50.928;7.172;2022-08-19T04:46:47;3.20;;;3.00;;
12848;SDS011;6493;50.928;7.172;2022-08-19T04:51:53;2.80;;;2.60;;
12848;SDS011;6493;50.928;7.172;2022-08-19T04:56:58;3.03;;;2.73;;
12848;SDS011;6493;50.928;7.172;2022-08-19T05:02:03;3.10;;;2.80;;
12848;SDS011;6493;50.928;7.172;2022-08-19T05:07:07;2.70;;;2.50;;
12848;SDS011;6493;50.928;7.172;2022-08-19T05:12:11;2.77;;;2.57;;
12848;SDS011;6493;50.928;7.172;2022-08-19T05:17:19;2.57;;;2.37;;
12848;SDS011;6493;50.928;7.172;2022-08-19T05:22:35;2.83;;;2.63;;
12848;SDS011;6493;50.928;7.172;2022-08-19T05:27:39;2.67;;;2.47;;
12848;SDS011;6493;50.928;7.172;2022-08-19T05:32:45;2.40;;;2.20;;
12848;SDS011;6493;50.928;7.172;2022-08-19T05:37:48;2.30;;;2.10;;
12848;SDS011;6493;50.928;7.172;2022-08-19T05:42:59;2.63;;;2.43;;
12848;SDS011;6493;50.928;7.172;2022-08-19T05:48:05;3.23;;;2.93;;
12848;SDS011;6493;50.928;7.172;2022-08-19T05:53:09;4.53;;;4.13;;
12848;SDS011;6493;50.928;7.172;2022-08-19T05:58:12;3.27;;;2.97;;
12848;SDS011;6493;50.928;7.172;2022-08-19T06:03:17;3.20;;;3.00;;
12848;SDS011;6493;50.928;7.172;2022-08-19T06:08:21;3.40;;;3.10;;
12848;SDS011;6493;50.928;7.172;2022-08-19T06:13:35;3.70;;;3.40;;
12848;SDS011;6493;50.928;7.172;2022-08-19T06:18:40;3.57;;;3.27;;
12848;SDS011;6493;50.928;7.172;2022-08-19T06:23:45;3.60;;;3.37;;
12848;SDS011;6493;50.928;7.172;2022-08-19T06:28:50;4.67;;;4.27;;
12848;SDS011;6493;50.928;7.172;2022-08-19T06:33:55;4.10;;;3.80;;
12848;SDS011;6493;50.928;7.172;2022-08-19T06:39:00;4.40;;;4.00;;
12848;SDS011;6493;50.928;7.172;2022-08-19T06:44:05;4.07;;;3.77;;
12848;SDS011;6493;50.928;7.172;2022-08-19T06:49:15;4.63;;;4.23;;
12848;SDS011;6493;50.928;7.172;2022-08-19T06:54:19;4.30;;;3.93;;
12848;SDS011;6493;50.928;7.172;2022-08-19T06:59:32;4.50;;;4.10;;
12848;SDS011;6493;50.928;7.172;2022-08-19T07:04:37;4.63;;;4.23;;
12848;SDS011;6493;50.928;7.172;2022-08-19T07:09:43;6.00;;;4.67;;
12848;SDS011;6493;50.928;7.172;2022-08-19T07:15:00;4.83;;;4.27;;
12848;SDS011;6493;50.928;7.172;2022-08-19T07:20:07;4.37;;;3.97;;
12848;SDS011;6493;50.928;7.172;2022-08-19T07:25:12;4.30;;;3.93;;
12848;SDS011;6493;50.928;7.172;2022-08-19T07:30:18;3.70;;;3.40;;
12848;SDS011;6493;50.928;7.172;2022-08-19T07:35:23;4.63;;;4.23;;
12848;SDS011;6493;50.928;7.172;2022-08-19T07:40:27;4.10;;;3.80;;
12848;SDS011;6493;50.928;7.172;2022-08-19T07:45:31;3.53;;;3.23;;
12848;SDS011;6493;50.928;7.172;2022-08-19T07:50:36;4.07;;;3.77;;
12848;SDS011;6493;50.928;7.172;2022-08-19T07:55:40;3.87;;;3.57;;
12848;SDS011;6493;50.928;7.172;2022-08-19T08:00:45;3.40;;;3.20;;
12848;SDS011;6493;50.928;7.172;2022-08-19T08:05:53;3.57;;;3.27;;
12848;SDS011;6493;50.928;7.172;2022-08-19T08:11:15;3.33;;;3.13;;
12848;SDS011;6493;50.928;7.172;2022-08-19T08:16:21;3.47;;;3.17;;
12848;SDS011;6493;50.928;7.172;2022-08-19T08:21:28;4.03;;;3.73;;
12848;SDS011;6493;50.928;7.172;2022-08-19T08:26:32;3.17;;;2.87;;
12848;SDS011;6493;50.928;7.172;2022-08-19T08:31:36;3.27;;;3.07;;
12848;SDS011;6493;50.928;7.172;2022-08-19T08:36:42;3.00;;;2.73;;
12848;SDS011;6493;50.928;7.172;2022-08-19T08:41:50;2.73;;;2.53;;
12848;SDS011;6493;50.928;7.172;2022-08-19T08:47:00;3.00;;;2.80;;
12848;SDS011;6493;50.928;7.172;2022-08-19T08:52:15;2.57;;;2.37;;
12848;SDS011;6493;50.928;7.172;2022-08-19T08:57:26;2.50;;;2.33;;
12848;SDS011;6493;50.928;7.172;2022-08-19T09:02:41;2.80;;;2.60;;
12848;SDS011;6493;50.928;7.172;2022-08-19T09:07:55;2.57;;;2.33;;
12848;SDS011;6493;50.928;7.172;2022-08-19T09:13:05;2.47;;;2.27;;
12848;SDS011;6493;50.928;7.172;2022-08-19T09:18:20;3.17;;;2.97;;
12848;SDS011;6493;50.928;7.172;2022-08-19T09:23:25;3.17;;;2.67;;
12848;SDS011;6493;50.928;7.172;2022-08-19T09:28:28;2.23;;;2.13;;
12848;SDS011;6493;50.928;7.172;2022-08-19T09:33:33;3.27;;;3.00;;
12848;SDS011;6493;50.928;7.172;2022-08-19T09:38:38;2.60;;;2.40;;
12848;SDS011;6493;50.928;7.172;2022-08-19T09:43:45;3.23;;;3.00;;
12848;SDS011;6493;50.928;7.172;2022-08-19T09:48:49;2.70;;;2.50;;
12848;SDS011;6493;50.928;7.172;2022-08-19T09:53:58;2.43;;;2.33;;
12848;SDS011;6493;50.928;7.172;2022-08-19T09:59:05;4.10;;;3.67;;
12848;SDS011;6493;50.928;7.172;2022-08-19T10:04:09;2.90;;;2.70;;
12848;SDS011;6493;50.928;7.172;2022-08-19T10:09:22;3.40;;;3.13;;
12848;SDS011;6493;50.928;7.172;2022-08-19T10:14:35;4.27;;;3.93;;
12848;SDS011;6493;50.928;7.172;2022-08-19T10:19:40;3.10;;;2.90;;
12848;SDS011;6493;50.928;7.172;2022-08-19T10:24:57;3.67;;;3.37;;
12848;SDS011;6493;50.928;7.172;2022-08-19T10:30:01;4.37;;;3.97;;
12848;SDS011;6493;50.928;7.172;2022-08-19T10:35:11;3.63;;;3.33;;
12848;SDS011;6493;50.928;7.172;2022-08-19T10:40:24;3.80;;;3.50;;
12848;SDS011;6493;50.928;7.172;2022-08-19T10:45:28;4.00;;;2.87;;
12848;SDS011;6493;50.928;7.172;2022-08-19T10:50:32;3.63;;;3.33;;
12848;SDS011;6493;50.928;7.172;2022-08-19T10:55:54;3.40;;;3.20;;
12848;SDS011;6493;50.928;7.172;2022-08-19T11:01:20;2.87;;;2.67;;
12848;SDS011;6493;50.928;7.172;2022-08-19T11:06:24;3.10;;;2.90;;
12848;SDS011;6493;50.928;7.172;2022-08-19T11:11:29;2.90;;;2.70;;
12848;SDS011;6493;50.928;7.172;2022-08-19T11:16:37;2.80;;;2.60;;
12848;SDS011;6493;50.928;7.172;2022-08-19T11:21:41;2.80;;;2.60;;
12848;SDS011;6493;50.928;7.172;2022-08-19T11:26:52;2.13;;;2.03;;
12848;SDS011;6493;50.928;7.172;2022-08-19T11:31:59;2.80;;;2.60;;
12848;SDS011;6493;50.928;7.172;2022-08-19T11:37:05;2.57;;;2.37;;
12848;SDS011;6493;50.928;7.172;2022-08-19T11:42:11;2.50;;;2.30;;
12848;SDS011;6493;50.928;7.172;2022-08-19T11:47:32;2.43;;;2.33;;
12848;SDS011;6493;50.928;7.172;2022-08-19T11:52:36;2.60;;;2.40;;
12848;SDS011;6493;50.928;7.172;2022-08-19T11:57:41;2.87;;;2.67;;
12848;SDS011;6493;50.928;7.172;2022-08-19T12:02:45;2.50;;;2.30;;
12848;SDS011;6493;50.928;7.172;2022-08-19T12:07:49;2.60;;;2.40;;
12848;SDS011;6493;50.928;7.172;2022-08-19T12:12:54;2.80;;;2.60;;
12848;SDS011;6493;50.928;7.172;2022-08-19T12:17:59;2.27;;;2.13;;
12848;SDS011;6493;50.928;7.172;2022-08-19T12:23:03;2.13;;;2.03;;
12848;SDS011;6493;50.928;7.172;2022-08-19T12:28:09;2.10;;;2.00;;
12848;SDS011;6493;50.928;7.172;2022-08-19T12:33:12;2.83;;;2.47;;
12848;SDS011;6493;50.928;7.172;2022-08-19T12:38:17;2.30;;;2.20;;
12848;SDS011;6493;50.928;7.172;2022-08-19T12:43:22;2.60;;;2.40;;
12848;SDS011;6493;50.928;7.172;2022-08-19T12:48:26;2.67;;;2.50;;
12848;SDS011;6493;50.928;7.172;2022-08-19T12:53:35;2.53;;;2.33;;
12848;SDS011;6493;50.928;7.172;2022-08-19T12:58:41;2.03;;;1.93;;
12848;SDS011;6493;50.928;7.172;2022-08-19T13:03:51;1.80;;;1.70;;
12848;SDS011;6493;50.928;7.172;2022-08-19T13:08:55;2.73;;;2.53;;
12848;SDS011;6493;50.928;7.172;2022-08-19T13:14:02;1.70;;;1.60;;
12848;SDS011;6493;50.928;7.172;2022-08-19T13:19:06;2.20;;;2.10;;
12848;SDS011;6493;50.928;7.172;2022-08-19T13:24:10;1.80;;;1.70;;
12848;SDS011;6493;50.928;7.172;2022-08-19T13:29:15;1.80;;;1.70;;
12848;SDS011;6493;50.928;7.172;2022-08-19T13:34:37;1.70;;;1.60;;
12848;SDS011;6493;50.928;7.172;2022-08-19T13:39:41;1.83;;;1.73;;
12848;SDS011;6493;50.928;7.172;2022-08-19T13:44:46;2.10;;;1.87;;
12848;SDS011;6493;50.928;7.172;2022-08-19T13:49:50;1.97;;;1.87;;
12848;SDS011;6493;50.928;7.172;2022-08-19T13:54:53;1.90;;;1.80;;
12848;SDS011;6493;50.928;7.172;2022-08-19T13:59:59;2.30;;;2.10;;
12848;SDS011;6493;50.928;7.172;2022-08-19T14:05:08;1.70;;;1.60;;
12848;SDS011;6493;50.928;7.172;2022-08-19T14:10:14;2.50;;;2.30;;
12848;SDS011;6493;50.928;7.172;2022-08-19T14:15:20;2.37;;;2.07;;
12848;SDS011;6493;50.928;7.172;2022-08-19T14:20:24;1.90;;;1.80;;
12848;SDS011;6493;50.928;7.172;2022-08-19T14:25:29;1.90;;;1.80;;
12848;SDS011;6493;50.928;7.172;2022-08-19T14:30:36;1.67;;;1.57;;
12848;SDS011;6493;50.928;7.172;2022-08-19T14:35:40;1.90;;;1.80;;
12848;SDS011;6493;50.928;7.172;2022-08-19T14:40:46;1.63;;;1.47;;
12848;SDS011;6493;50.928;7.172;2022-08-19T14:45:52;1.60;;;1.50;;
12848;SDS011;6493;50.928;7.172;2022-08-19T14:50:56;1.53;;;1.40;;
12848;SDS011;6493;50.928;7.172;2022-08-19T14:56:00;1.73;;;1.63;;
12848;SDS011;6493;50.928;7.172;2022-08-19T15:01:06;1.37;;;1.27;;
12848;SDS011;6493;50.928;7.172;2022-08-19T15:06:10;1.60;;;1.50;;
12848;SDS011;6493;50.928;7.172;2022-08-19T15:11:15;1.17;;;1.17;;
12848;SDS011;6493;50.928;7.172;2022-08-19T15:16:24;1.70;;;1.60;;
12848;SDS011;6493;50.928;7.172;2022-08-19T15:21:29;1.50;;;1.40;;
12848;SDS011;6493;50.928;7.172;2022-08-19T15:26:34;1.30;;;1.20;;
12848;SDS011;6493;50.928;7.172;2022-08-19T15:31:39;1.43;;;1.30;;
12848;SDS011;6493;50.928;7.172;2022-08-19T15:36:43;1.37;;;1.03;;
12848;SDS011;6493;50.928;7.172;2022-08-19T15:41:47;1.23;;;1.13;;
12848;SDS011;6493;50.928;7.172;2022-08-19T15:46:52;1.40;;;1.30;;
12848;SDS011;6493;50.928;7.172;2022-08-19T15:51:55;1.23;;;1.20;;
12848;SDS011;6493;50.928;7.172;2022-08-19T15:57:00;1.13;;;1.03;;
12848;SDS011;6493;50.928;7.172;2022-08-19T16:02:24;1.53;;;1.10;;
12848;SDS011;6493;50.928;7.172;2022-08-19T16:07:47;1.13;;;0.93;;
12848;SDS011;6493;50.928;7.172;2022-08-19T16:12:52;2.00;;;0.87;;
12848;SDS011;6493;50.928;7.172;2022-08-19T16:17:57;1.10;;;1.00;;
12848;SDS011;6493;50.928;7.172;2022-08-19T16:23:03;1.07;;;0.80;;
12848;SDS011;6493;50.928;7.172;2022-08-19T16:28:06;0.93;;;0.70;;
12848;SDS011;6493;50.928;7.172;2022-08-19T16:33:13;0.83;;;0.80;;
12848;SDS011;6493;50.928;7.172;2022-08-19T16:38:24;0.90;;;0.60;;
12848;SDS011;6493;50.928;7.172;2022-08-19T16:43:28;0.90;;;0.70;;
12848;SDS011;6493;50.928;7.172;2022-08-19T16:48:35;0.70;;;0.50;;
12848;SDS011;6493;50.928;7.172;2022-08-19T16:53:43;1.40;;;0.70;;
12848;SDS011;6493;50.928;7.172;2022-08-19T16:58:47;0.80;;;0.70;;
12848;SDS011;6493;50.928;7.172;2022-08-19T17:03:53;0.73;;;0.70;;
12848;SDS011;6493;50.928;7.172;2022-08-19T17:08:58;0.80;;;0.63;;
12848;SDS011;6493;50.928;7.172;2022-08-19T17:14:04;0.97;;;0.77;;
12848;SDS011;6493;50.928;7.172;2022-08-19T17:19:09;0.83;;;0.83;;
12848;SDS011;6493;50.928;7.172;2022-08-19T17:24:12;0.60;;;0.60;;
12848;SDS011;6493;50.928;7.172;2022-08-19T17:29:17;0.90;;;0.90;;
12848;SDS011;6493;50.928;7.172;2022-08-19T17:34:22;0.60;;;0.57;;
12848;SDS011;6493;50.928;7.172;2022-08-19T17:39:25;0.70;;;0.70;;
12848;SDS011;6493;50.928;7.172;2022-08-19T17:44:29;0.57;;;0.50;;
12848;SDS011;6493;50.928;7.172;2022-08-19T17:49:35;0.50;;;0.50;;
12848;SDS011;6493;50.928;7.172;2022-08-19T17:54:38;0.63;;;0.50;;
12848;SDS011;6493;50.928;7.172;2022-08-19T17:59:42;0.60;;;0.60;;
12848;SDS011;6493;50.928;7.172;2022-08-19T18:04:47;0.60;;;0.60;;
12848;SDS011;6493;50.928;7.172;2022-08-19T18:09:51;0.67;;;0.67;;
12848;SDS011;6493;50.928;7.172;2022-08-19T18:14:56;0.50;;;0.50;;
12848;SDS011;6493;50.928;7.172;2022-08-19T18:20:02;0.80;;;0.63;;
12848;SDS011;6493;50.928;7.172;2022-08-19T18:25:14;0.63;;;0.60;;
12848;SDS011;6493;50.928;7.172;2022-08-19T18:30:21;0.50;;;0.50;;
12848;SDS011;6493;50.928;7.172;2022-08-19T18:35:31;0.50;;;0.50;;
12848;SDS011;6493;50.928;7.172;2022-08-19T18:40:34;0.50;;;0.50;;
12848;SDS011;6493;50.928;7.172;2022-08-19T18:45:55;0.40;;;0.40;;
12848;SDS011;6493;50.928;7.172;2022-08-19T18:51:18;0.50;;;0.50;;
12848;SDS011;6493;50.928;7.172;2022-08-19T18:56:26;0.50;;;0.50;;
12848;SDS011;6493;50.928;7.172;2022-08-19T19:01:33;0.60;;;0.47;;
12848;SDS011;6493;50.928;7.172;2022-08-19T19:06:41;0.50;;;0.50;;
12848;SDS011;6493;50.928;7.172;2022-08-19T19:11:46;0.43;;;0.43;;
12848;SDS011;6493;50.928;7.172;2022-08-19T19:16:51;0.43;;;0.43;;
12848;SDS011;6493;50.928;7.172;2022-08-19T19:21:57;0.47;;;0.40;;
12848;SDS011;6493;50.928;7.172;2022-08-19T19:27:02;0.57;;;0.57;;
12848;SDS011;6493;50.928;7.172;2022-08-19T19:32:09;1.33;;;0.50;;
12848;SDS011;6493;50.928;7.172;2022-08-19T19:37:23;0.50;;;0.50;;
12848;SDS011;6493;50.928;7.172;2022-08-19T19:42:27;0.53;;;0.53;;
12848;SDS011;6493;50.928;7.172;2022-08-19T19:47:30;0.37;;;0.37;;
12848;SDS011;6493;50.928;7.172;2022-08-19T19:52:35;0.50;;;0.50;;
12848;SDS011;6493;50.928;7.172;2022-08-19T19:57:39;0.50;;;0.50;;
12848;SDS011;6493;50.928;7.172;2022-08-19T20:02:43;0.30;;;0.30;;
12848;SDS011;6493;50.928;7.172;2022-08-19T20:07:53;0.57;;;0.57;;
12848;SDS011;6493;50.928;7.172;2022-08-19T20:13:14;0.50;;;0.50;;
12848;SDS011;6493;50.928;7.172;2022-08-19T20:18:18;0.50;;;0.50;;
12848;SDS011;6493;50.928;7.172;2022-08-19T20:23:23;0.40;;;0.40;;
12848;SDS011;6493;50.928;7.172;2022-08-19T20:28:27;0.40;;;0.40;;
12848;SDS011;6493;50.928;7.172;2022-08-19T20:33:30;0.50;;;0.50;;
12848;SDS011;6493;50.928;7.172;2022-08-19T20:38:36;0.40;;;0.40;;
12848;SDS011;6493;50.928;7.172;2022-08-19T20:43:39;0.40;;;0.40;;
12848;SDS011;6493;50.928;7.172;2022-08-19T20:48:43;0.77;;;0.70;;
12848;SDS011;6493;50.928;7.172;2022-08-19T20:53:50;0.57;;;0.57;;
12848;SDS011;6493;50.928;7.172;2022-08-19T20:58:55;0.53;;;0.53;;
12848;SDS011;6493;50.928;7.172;2022-08-19T21:04:01;0.40;;;0.40;;
12848;SDS011;6493;50.928;7.172;2022-08-19T21:09:06;0.40;;;0.40;;
12848;SDS011;6493;50.928;7.172;2022-08-19T21:14:10;0.50;;;0.50;;
12848;SDS011;6493;50.928;7.172;2022-08-19T21:19:15;0.40;;;0.40;;
12848;SDS011;6493;50.928;7.172;2022-08-19T21:24:26;0.37;;;0.37;;
12848;SDS011;6493;50.928;7.172;2022-08-19T21:29:32;0.37;;;0.37;;
12848;SDS011;6493;50.928;7.172;2022-08-19T21:34:38;0.50;;;0.50;;
12848;SDS011;6493;50.928;7.172;2022-08-19T21:39:46;0.50;;;0.50;;
12848;SDS011;6493;50.928;7.172;2022-08-19T21:44:50;0.30;;;0.30;;
12848;SDS011;6493;50.928;7.172;2022-08-19T21:49:54;0.30;;;0.30;;
12848;SDS011;6493;50.928;7.172;2022-08-19T21:54:59;0.40;;;0.40;;
12848;SDS011;6493;50.928;7.172;2022-08-19T22:00:04;0.30;;;0.30;;
12848;SDS011;6493;50.928;7.172;2022-08-19T22:05:12;0.30;;;0.30;;
12848;SDS011;6493;50.928;7.172;2022-08-19T22:10:18;1.03;;;0.40;;
12848;SDS011;6493;50.928;7.172;2022-08-19T22:15:23;0.30;;;0.30;;
12848;SDS011;6493;50.928;7.172;2022-08-19T22:20:30;0.30;;;0.30;;
12848;SDS011;6493;50.928;7.172;2022-08-19T22:25:36;0.30;;;0.30;;
12848;SDS011;6493;50.928;7.172;2022-08-19T22:30:42;0.30;;;0.30;;
12848;SDS011;6493;50.928;7.172;2022-08-19T22:35:50;0.23;;;0.23;;
12848;SDS011;6493;50.928;7.172;2022-08-19T22:40:56;0.23;;;0.23;;
12848;SDS011;6493;50.928;7.172;2022-08-19T22:46:00;0.40;;;0.30;;
12848;SDS011;6493;50.928;7.172;2022-08-19T22:51:03;0.20;;;0.20;;
12848;SDS011;6493;50.928;7.172;2022-08-19T22:56:27;0.33;;;0.30;;
12848;SDS011;6493;50.928;7.172;2022-08-19T23:01:31;1.13;;;0.50;;
12848;SDS011;6493;50.928;7.172;2022-08-19T23:06:36;0.40;;;0.37;;
12848;SDS011;6493;50.928;7.172;2022-08-19T23:11:44;1.13;;;0.43;;
12848;SDS011;6493;50.928;7.172;2022-08-19T23:16:49;1.07;;;0.40;;
12848;SDS011;6493;50.928;7.172;2022-08-19T23:21:57;0.50;;;0.50;;
12848;SDS011;6493;50.928;7.172;2022-08-19T23:27:03;0.40;;;0.40;;
12848;SDS011;6493;50.928;7.172;2022-08-19T23:32:25;1.20;;;0.53;;
12848;SDS011;6493;50.928;7.172;2022-08-19T23:37:29;0.40;;;0.40;;
12848;SDS011;6493;50.928;7.172;2022-08-19T23:42:34;0.40;;;0.40;;
12848;SDS011;6493;50.928;7.172;2022-08-19T23:47:37;0.50;;;0.50;;
12848;SDS011;6493;50.928;7.172;2022-08-19T23:52:43;0.50;;;0.50;;
12848;SDS011;6493;50.928;7.172;2022-08-19T23:57:49;0.40;;;0.40;;
